Accueil
METAR-TAF:

METAR-TAF

Aéroports :

Aéroport domestique de Najran

Najran, Arabie saoudite

latitude: 17-37N, longitude: 044-25E, altitude: 1212 m

Observation

Le bulletin a été fait il y a 48 minutes, à 01:00 UTC
Vent calme
Température 16°C
Humidité 39%
Pression 1020 hPa
Visibilité: 6000 m

METAR: OENG 220100Z 00000KT 6000 NSC 16/02 Q1020 NOSIG

Heure: 04:48 (01:48 UTC)

Prévision

Le bulletin a été fait il y a 2 heures et 48 minutes, à 23:00 UTC
Prévision valable du 22 à 00 UTC au 23 à 06 UTC
Vent 8 kt de ouest/sud-ouest
Visibilité: 7000 m
Evoluant progressivement
du 22 à 08 UTC au 22 à 10 UTC
Vent 14 kt de est/sud-est
Evoluant progressivement
du 22 à 18 UTC au 22 à 20 UTC
Vent 3 kt de direction variable

TAF: OENG 212300Z 2200/2306 24008KT 7000 NSC BECMG 2208/2210 12014KT BECMG 2218/2220 VRB03KT

Observations et prévisions météorologiques de plus de 4000 aéroports (messages METAR et TAF).

Les stations disponibles sont représentées par des disques jaunes et rouges sur la carte.

Passer la souris dessus pour voir le nom de la station.

Cliquer dessus pour voir les observations et prévisions météorologiques.

Pour changer de carte: cliquez sur les boutons verts avec une croix noire pour zoomer, sur le bouton vert avec un tiret pour effectuer un zoom arrière, ou sur les flèches vertes pour les cartes adjacentes.


METAR-TAF: